sensor_id;sensor_type;location;lat;lon;timestamp;P1;durP1;ratioP1;P2;durP2;ratioP2
84355;SDS011;74539;43.518;1.504;2024-01-15T00:00:37;5.05;;;2.92;;
84355;SDS011;74539;43.518;1.504;2024-01-15T00:03:03;5.25;;;2.78;;
84355;SDS011;74539;43.518;1.504;2024-01-15T00:05:29;4.72;;;2.88;;
84355;SDS011;74539;43.518;1.504;2024-01-15T00:07:54;6.47;;;3.35;;
84355;SDS011;74539;43.518;1.504;2024-01-15T00:10:20;6.78;;;2.92;;
84355;SDS011;74539;43.518;1.504;2024-01-15T00:12:45;6.15;;;3.03;;
84355;SDS011;74539;43.518;1.504;2024-01-15T00:15:11;6.40;;;3.10;;
84355;SDS011;74539;43.518;1.504;2024-01-15T00:17:36;4.05;;;2.42;;
84355;SDS011;74539;43.518;1.504;2024-01-15T00:20:01;5.00;;;2.60;;
84355;SDS011;74539;43.518;1.504;2024-01-15T00:22:28;5.35;;;2.60;;
84355;SDS011;74539;43.518;1.504;2024-01-15T00:24:54;4.80;;;2.85;;
84355;SDS011;74539;43.518;1.504;2024-01-15T00:27:19;5.07;;;2.65;;
84355;SDS011;74539;43.518;1.504;2024-01-15T00:29:45;5.28;;;2.80;;
84355;SDS011;74539;43.518;1.504;2024-01-15T00:32:10;4.70;;;2.58;;
84355;SDS011;74539;43.518;1.504;2024-01-15T00:34:36;4.57;;;2.40;;
84355;SDS011;74539;43.518;1.504;2024-01-15T00:37:01;4.88;;;2.70;;
84355;SDS011;74539;43.518;1.504;2024-01-15T00:39:27;4.18;;;2.33;;
84355;SDS011;74539;43.518;1.504;2024-01-15T00:41:53;4.50;;;2.58;;
84355;SDS011;74539;43.518;1.504;2024-01-15T00:44:18;5.70;;;2.60;;
84355;SDS011;74539;43.518;1.504;2024-01-15T00:46:44;4.45;;;2.45;;
84355;SDS011;74539;43.518;1.504;2024-01-15T00:49:11;4.13;;;2.63;;
84355;SDS011;74539;43.518;1.504;2024-01-15T00:51:38;4.20;;;2.70;;
84355;SDS011;74539;43.518;1.504;2024-01-15T00:54:03;4.32;;;2.22;;
84355;SDS011;74539;43.518;1.504;2024-01-15T00:56:29;4.38;;;2.65;;
84355;SDS011;74539;43.518;1.504;2024-01-15T00:58:54;4.97;;;2.50;;
84355;SDS011;74539;43.518;1.504;2024-01-15T01:01:20;4.70;;;2.20;;
84355;SDS011;74539;43.518;1.504;2024-01-15T01:03:45;4.85;;;2.35;;
84355;SDS011;74539;43.518;1.504;2024-01-15T01:06:10;3.35;;;2.20;;
84355;SDS011;74539;43.518;1.504;2024-01-15T01:08:36;5.13;;;2.25;;
84355;SDS011;74539;43.518;1.504;2024-01-15T01:11:01;5.68;;;2.30;;
84355;SDS011;74539;43.518;1.504;2024-01-15T01:13:27;3.22;;;1.95;;
84355;SDS011;74539;43.518;1.504;2024-01-15T01:15:52;2.85;;;1.92;;
84355;SDS011;74539;43.518;1.504;2024-01-15T01:18:18;5.13;;;2.33;;
84355;SDS011;74539;43.518;1.504;2024-01-15T01:20:43;6.07;;;2.13;;
84355;SDS011;74539;43.518;1.504;2024-01-15T01:23:08;4.40;;;2.30;;
84355;SDS011;74539;43.518;1.504;2024-01-15T01:25:34;3.15;;;2.20;;
84355;SDS011;74539;43.518;1.504;2024-01-15T01:27:59;4.13;;;2.15;;
84355;SDS011;74539;43.518;1.504;2024-01-15T01:30:25;4.03;;;2.30;;
84355;SDS011;74539;43.518;1.504;2024-01-15T01:32:50;4.70;;;2.30;;
84355;SDS011;74539;43.518;1.504;2024-01-15T01:35:15;2.95;;;1.83;;
84355;SDS011;74539;43.518;1.504;2024-01-15T01:37:41;5.38;;;2.20;;
84355;SDS011;74539;43.518;1.504;2024-01-15T01:40:06;3.85;;;1.80;;
84355;SDS011;74539;43.518;1.504;2024-01-15T01:42:32;5.38;;;2.20;;
84355;SDS011;74539;43.518;1.504;2024-01-15T01:44:58;3.53;;;2.08;;
84355;SDS011;74539;43.518;1.504;2024-01-15T01:47:23;3.45;;;1.88;;
84355;SDS011;74539;43.518;1.504;2024-01-15T01:49:51;3.17;;;2.22;;
84355;SDS011;74539;43.518;1.504;2024-01-15T01:52:17;4.07;;;1.95;;
84355;SDS011;74539;43.518;1.504;2024-01-15T01:54:43;4.13;;;2.22;;
84355;SDS011;74539;43.518;1.504;2024-01-15T01:57:09;2.88;;;1.90;;
84355;SDS011;74539;43.518;1.504;2024-01-15T01:59:35;5.18;;;1.92;;
84355;SDS011;74539;43.518;1.504;2024-01-15T02:02:02;4.18;;;2.08;;
84355;SDS011;74539;43.518;1.504;2024-01-15T02:04:29;4.57;;;1.90;;
84355;SDS011;74539;43.518;1.504;2024-01-15T02:06:56;4.07;;;2.25;;
84355;SDS011;74539;43.518;1.504;2024-01-15T02:09:21;3.70;;;2.17;;
84355;SDS011;74539;43.518;1.504;2024-01-15T02:11:47;3.10;;;2.10;;
84355;SDS011;74539;43.518;1.504;2024-01-15T02:14:13;3.28;;;2.13;;
84355;SDS011;74539;43.518;1.504;2024-01-15T02:16:39;3.58;;;2.00;;
84355;SDS011;74539;43.518;1.504;2024-01-15T02:19:04;2.85;;;1.90;;
84355;SDS011;74539;43.518;1.504;2024-01-15T02:21:31;4.97;;;1.95;;
84355;SDS011;74539;43.518;1.504;2024-01-15T02:23:57;3.45;;;1.90;;
84355;SDS011;74539;43.518;1.504;2024-01-15T02:26:23;3.17;;;1.85;;
84355;SDS011;74539;43.518;1.504;2024-01-15T02:28:48;3.67;;;1.63;;
84355;SDS011;74539;43.518;1.504;2024-01-15T02:31:15;4.30;;;2.00;;
84355;SDS011;74539;43.518;1.504;2024-01-15T02:33:41;3.78;;;1.80;;
84355;SDS011;74539;43.518;1.504;2024-01-15T02:36:07;3.47;;;1.90;;
84355;SDS011;74539;43.518;1.504;2024-01-15T02:38:33;3.95;;;2.00;;
84355;SDS011;74539;43.518;1.504;2024-01-15T02:40:58;2.85;;;1.80;;
84355;SDS011;74539;43.518;1.504;2024-01-15T02:43:24;3.75;;;1.80;;
84355;SDS011;74539;43.518;1.504;2024-01-15T02:45:49;4.03;;;2.00;;
84355;SDS011;74539;43.518;1.504;2024-01-15T02:48:15;2.92;;;1.80;;
84355;SDS011;74539;43.518;1.504;2024-01-15T02:50:40;2.95;;;1.80;;
84355;SDS011;74539;43.518;1.504;2024-01-15T02:53:06;3.22;;;1.90;;
84355;SDS011;74539;43.518;1.504;2024-01-15T02:55:31;3.38;;;2.00;;
84355;SDS011;74539;43.518;1.504;2024-01-15T02:57:57;3.33;;;1.80;;
84355;SDS011;74539;43.518;1.504;2024-01-15T03:00:22;3.08;;;1.80;;
84355;SDS011;74539;43.518;1.504;2024-01-15T03:02:49;3.60;;;2.00;;
84355;SDS011;74539;43.518;1.504;2024-01-15T03:05:15;3.90;;;2.17;;
84355;SDS011;74539;43.518;1.504;2024-01-15T03:07:41;3.17;;;1.73;;
84355;SDS011;74539;43.518;1.504;2024-01-15T03:10:07;2.60;;;1.80;;
84355;SDS011;74539;43.518;1.504;2024-01-15T03:12:33;4.05;;;1.90;;
84355;SDS011;74539;43.518;1.504;2024-01-15T03:14:58;2.70;;;1.77;;
84355;SDS011;74539;43.518;1.504;2024-01-15T03:17:24;3.42;;;2.05;;
84355;SDS011;74539;43.518;1.504;2024-01-15T03:19:50;3.97;;;1.77;;
84355;SDS011;74539;43.518;1.504;2024-01-15T03:22:16;3.05;;;1.70;;
84355;SDS011;74539;43.518;1.504;2024-01-15T03:24:42;3.97;;;2.00;;
84355;SDS011;74539;43.518;1.504;2024-01-15T03:27:07;2.53;;;1.77;;
84355;SDS011;74539;43.518;1.504;2024-01-15T03:29:33;3.42;;;1.90;;
84355;SDS011;74539;43.518;1.504;2024-01-15T03:31:58;5.03;;;2.35;;
84355;SDS011;74539;43.518;1.504;2024-01-15T03:34:23;3.88;;;1.83;;
84355;SDS011;74539;43.518;1.504;2024-01-15T03:36:49;3.63;;;2.40;;
84355;SDS011;74539;43.518;1.504;2024-01-15T03:39:14;4.13;;;2.15;;
84355;SDS011;74539;43.518;1.504;2024-01-15T03:41:40;4.63;;;2.28;;
84355;SDS011;74539;43.518;1.504;2024-01-15T03:44:05;2.80;;;1.88;;
84355;SDS011;74539;43.518;1.504;2024-01-15T03:46:31;3.90;;;2.30;;
84355;SDS011;74539;43.518;1.504;2024-01-15T03:48:56;4.05;;;2.10;;
84355;SDS011;74539;43.518;1.504;2024-01-15T03:51:22;3.50;;;2.10;;
84355;SDS011;74539;43.518;1.504;2024-01-15T03:53:48;3.22;;;1.80;;
84355;SDS011;74539;43.518;1.504;2024-01-15T03:56:13;3.78;;;2.03;;
84355;SDS011;74539;43.518;1.504;2024-01-15T03:58:39;4.30;;;1.92;;
84355;SDS011;74539;43.518;1.504;2024-01-15T04:01:07;2.85;;;1.88;;
84355;SDS011;74539;43.518;1.504;2024-01-15T04:03:34;4.13;;;1.98;;
84355;SDS011;74539;43.518;1.504;2024-01-15T04:06:00;3.55;;;2.20;;
84355;SDS011;74539;43.518;1.504;2024-01-15T04:08:25;3.58;;;2.03;;
84355;SDS011;74539;43.518;1.504;2024-01-15T04:10:51;4.32;;;2.20;;
84355;SDS011;74539;43.518;1.504;2024-01-15T04:13:16;3.25;;;2.05;;
84355;SDS011;74539;43.518;1.504;2024-01-15T04:15:41;3.75;;;2.00;;
84355;SDS011;74539;43.518;1.504;2024-01-15T04:18:07;4.28;;;2.17;;
84355;SDS011;74539;43.518;1.504;2024-01-15T04:20:32;3.70;;;1.90;;
84355;SDS011;74539;43.518;1.504;2024-01-15T04:22:58;3.40;;;1.90;;
84355;SDS011;74539;43.518;1.504;2024-01-15T04:25:23;3.08;;;1.85;;
84355;SDS011;74539;43.518;1.504;2024-01-15T04:27:48;3.85;;;2.00;;
84355;SDS011;74539;43.518;1.504;2024-01-15T04:30:14;3.80;;;2.10;;
84355;SDS011;74539;43.518;1.504;2024-01-15T04:32:39;5.25;;;2.15;;
84355;SDS011;74539;43.518;1.504;2024-01-15T04:35:05;2.95;;;1.88;;
84355;SDS011;74539;43.518;1.504;2024-01-15T04:37:31;2.97;;;1.67;;
84355;SDS011;74539;43.518;1.504;2024-01-15T04:39:56;4.80;;;2.40;;
84355;SDS011;74539;43.518;1.504;2024-01-15T04:42:22;4.13;;;2.10;;
84355;SDS011;74539;43.518;1.504;2024-01-15T04:44:48;4.10;;;2.10;;
84355;SDS011;74539;43.518;1.504;2024-01-15T04:47:13;4.03;;;2.20;;
84355;SDS011;74539;43.518;1.504;2024-01-15T04:49:39;5.38;;;2.35;;
84355;SDS011;74539;43.518;1.504;2024-01-15T04:52:04;4.10;;;2.13;;
84355;SDS011;74539;43.518;1.504;2024-01-15T04:54:30;3.65;;;2.10;;
84355;SDS011;74539;43.518;1.504;2024-01-15T04:56:55;4.13;;;2.30;;
84355;SDS011;74539;43.518;1.504;2024-01-15T04:59:21;3.67;;;1.83;;
84355;SDS011;74539;43.518;1.504;2024-01-15T05:01:46;3.60;;;1.95;;
84355;SDS011;74539;43.518;1.504;2024-01-15T05:04:12;4.13;;;1.90;;
84355;SDS011;74539;43.518;1.504;2024-01-15T05:06:37;2.42;;;1.65;;
84355;SDS011;74539;43.518;1.504;2024-01-15T05:09:03;3.80;;;2.00;;
84355;SDS011;74539;43.518;1.504;2024-01-15T05:11:29;4.60;;;1.88;;
84355;SDS011;74539;43.518;1.504;2024-01-15T05:13:54;3.47;;;1.75;;
84355;SDS011;74539;43.518;1.504;2024-01-15T05:16:20;3.58;;;2.15;;
84355;SDS011;74539;43.518;1.504;2024-01-15T05:18:45;2.92;;;1.70;;
84355;SDS011;74539;43.518;1.504;2024-01-15T05:21:11;2.60;;;1.85;;
84355;SDS011;74539;43.518;1.504;2024-01-15T05:23:37;3.63;;;1.92;;
84355;SDS011;74539;43.518;1.504;2024-01-15T05:26:03;3.75;;;1.60;;
84355;SDS011;74539;43.518;1.504;2024-01-15T05:28:28;2.80;;;1.80;;
84355;SDS011;74539;43.518;1.504;2024-01-15T05:30:54;3.95;;;1.83;;
84355;SDS011;74539;43.518;1.504;2024-01-15T05:33:20;2.67;;;1.75;;
84355;SDS011;74539;43.518;1.504;2024-01-15T05:35:49;2.42;;;1.60;;
84355;SDS011;74539;43.518;1.504;2024-01-15T05:38:15;4.20;;;1.80;;
84355;SDS011;74539;43.518;1.504;2024-01-15T05:40:41;2.67;;;1.60;;
84355;SDS011;74539;43.518;1.504;2024-01-15T05:43:06;4.15;;;2.03;;
84355;SDS011;74539;43.518;1.504;2024-01-15T05:45:33;3.50;;;1.67;;
84355;SDS011;74539;43.518;1.504;2024-01-15T05:48:00;3.70;;;2.00;;
84355;SDS011;74539;43.518;1.504;2024-01-15T05:50:25;3.47;;;1.88;;
84355;SDS011;74539;43.518;1.504;2024-01-15T05:52:50;3.55;;;1.60;;
84355;SDS011;74539;43.518;1.504;2024-01-15T05:55:17;2.92;;;1.60;;
84355;SDS011;74539;43.518;1.504;2024-01-15T05:57:43;2.50;;;1.63;;
84355;SDS011;74539;43.518;1.504;2024-01-15T06:00:09;4.15;;;1.90;;
84355;SDS011;74539;43.518;1.504;2024-01-15T06:02:36;2.35;;;1.60;;
84355;SDS011;74539;43.518;1.504;2024-01-15T06:05:03;2.60;;;1.65;;
84355;SDS011;74539;43.518;1.504;2024-01-15T06:07:29;3.22;;;1.67;;
84355;SDS011;74539;43.518;1.504;2024-01-15T06:09:54;3.05;;;1.77;;
84355;SDS011;74539;43.518;1.504;2024-01-15T06:12:22;3.33;;;1.63;;
84355;SDS011;74539;43.518;1.504;2024-01-15T06:14:47;2.55;;;1.73;;
84355;SDS011;74539;43.518;1.504;2024-01-15T06:17:13;3.25;;;1.80;;
84355;SDS011;74539;43.518;1.504;2024-01-15T06:19:38;2.85;;;1.73;;
84355;SDS011;74539;43.518;1.504;2024-01-15T06:22:04;3.53;;;1.83;;
84355;SDS011;74539;43.518;1.504;2024-01-15T06:24:29;2.97;;;1.90;;
84355;SDS011;74539;43.518;1.504;2024-01-15T06:26:55;4.40;;;1.80;;
84355;SDS011;74539;43.518;1.504;2024-01-15T06:29:20;2.80;;;1.60;;
84355;SDS011;74539;43.518;1.504;2024-01-15T06:31:46;2.17;;;1.73;;
84355;SDS011;74539;43.518;1.504;2024-01-15T06:34:11;2.83;;;1.60;;
84355;SDS011;74539;43.518;1.504;2024-01-15T06:36:37;3.25;;;1.70;;
84355;SDS011;74539;43.518;1.504;2024-01-15T06:39:02;2.63;;;1.50;;
84355;SDS011;74539;43.518;1.504;2024-01-15T06:41:28;2.38;;;1.65;;
84355;SDS011;74539;43.518;1.504;2024-01-15T06:43:53;3.50;;;1.83;;
84355;SDS011;74539;43.518;1.504;2024-01-15T06:46:19;4.72;;;1.85;;
84355;SDS011;74539;43.518;1.504;2024-01-15T06:48:46;2.85;;;1.70;;
84355;SDS011;74539;43.518;1.504;2024-01-15T06:51:11;3.17;;;1.77;;
84355;SDS011;74539;43.518;1.504;2024-01-15T06:53:37;2.78;;;1.70;;
84355;SDS011;74539;43.518;1.504;2024-01-15T06:56:02;2.40;;;1.70;;
84355;SDS011;74539;43.518;1.504;2024-01-15T06:58:28;3.45;;;2.10;;
84355;SDS011;74539;43.518;1.504;2024-01-15T07:00:55;2.85;;;1.80;;
84355;SDS011;74539;43.518;1.504;2024-01-15T07:03:21;3.35;;;1.83;;
84355;SDS011;74539;43.518;1.504;2024-01-15T07:05:46;3.33;;;1.95;;
84355;SDS011;74539;43.518;1.504;2024-01-15T07:08:12;3.38;;;1.90;;
84355;SDS011;74539;43.518;1.504;2024-01-15T07:10:37;2.78;;;1.90;;
84355;SDS011;74539;43.518;1.504;2024-01-15T07:13:02;2.65;;;1.90;;
84355;SDS011;74539;43.518;1.504;2024-01-15T07:15:29;3.58;;;2.13;;
84355;SDS011;74539;43.518;1.504;2024-01-15T07:17:55;4.25;;;2.25;;
84355;SDS011;74539;43.518;1.504;2024-01-15T07:20:20;3.72;;;1.95;;
84355;SDS011;74539;43.518;1.504;2024-01-15T07:22:46;3.20;;;2.00;;
84355;SDS011;74539;43.518;1.504;2024-01-15T07:25:11;4.50;;;2.25;;
84355;SDS011;74539;43.518;1.504;2024-01-15T07:27:37;3.70;;;2.05;;
84355;SDS011;74539;43.518;1.504;2024-01-15T07:30:03;4.68;;;2.30;;
84355;SDS011;74539;43.518;1.504;2024-01-15T07:32:30;3.83;;;2.00;;
84355;SDS011;74539;43.518;1.504;2024-01-15T07:34:56;3.17;;;2.00;;
84355;SDS011;74539;43.518;1.504;2024-01-15T07:37:22;3.28;;;2.15;;
84355;SDS011;74539;43.518;1.504;2024-01-15T07:39:48;4.07;;;2.10;;
84355;SDS011;74539;43.518;1.504;2024-01-15T07:42:14;3.80;;;2.30;;
84355;SDS011;74539;43.518;1.504;2024-01-15T07:44:40;3.63;;;2.20;;
84355;SDS011;74539;43.518;1.504;2024-01-15T07:47:05;4.25;;;2.30;;
84355;SDS011;74539;43.518;1.504;2024-01-15T07:49:31;3.85;;;2.25;;
84355;SDS011;74539;43.518;1.504;2024-01-15T07:51:56;3.92;;;2.22;;
84355;SDS011;74539;43.518;1.504;2024-01-15T07:54:21;3.85;;;2.13;;
84355;SDS011;74539;43.518;1.504;2024-01-15T07:56:58;3.88;;;2.65;;
84355;SDS011;74539;43.518;1.504;2024-01-15T07:59:25;4.28;;;2.55;;
84355;SDS011;74539;43.518;1.504;2024-01-15T08:01:51;5.10;;;2.45;;
84355;SDS011;74539;43.518;1.504;2024-01-15T08:04:18;4.50;;;2.60;;
84355;SDS011;74539;43.518;1.504;2024-01-15T08:06:44;3.35;;;2.17;;
84355;SDS011;74539;43.518;1.504;2024-01-15T08:09:10;4.72;;;2.45;;
84355;SDS011;74539;43.518;1.504;2024-01-15T08:11:40;4.97;;;2.70;;
84355;SDS011;74539;43.518;1.504;2024-01-15T08:14:07;5.57;;;2.70;;
84355;SDS011;74539;43.518;1.504;2024-01-15T08:16:32;3.67;;;2.28;;
84355;SDS011;74539;43.518;1.504;2024-01-15T08:18:58;4.53;;;2.90;;
84355;SDS011;74539;43.518;1.504;2024-01-15T08:21:24;4.18;;;2.60;;
84355;SDS011;74539;43.518;1.504;2024-01-15T08:23:49;4.50;;;2.75;;
84355;SDS011;74539;43.518;1.504;2024-01-15T08:26:15;5.60;;;2.60;;
84355;SDS011;74539;43.518;1.504;2024-01-15T08:28:40;5.28;;;2.75;;
84355;SDS011;74539;43.518;1.504;2024-01-15T08:31:06;5.32;;;2.75;;
84355;SDS011;74539;43.518;1.504;2024-01-15T08:33:31;4.45;;;2.70;;
84355;SDS011;74539;43.518;1.504;2024-01-15T08:35:57;4.50;;;2.60;;
84355;SDS011;74539;43.518;1.504;2024-01-15T08:38:22;4.15;;;2.67;;
84355;SDS011;74539;43.518;1.504;2024-01-15T08:40:49;4.15;;;2.47;;
84355;SDS011;74539;43.518;1.504;2024-01-15T08:43:14;4.35;;;2.58;;
84355;SDS011;74539;43.518;1.504;2024-01-15T08:45:40;5.88;;;2.67;;
84355;SDS011;74539;43.518;1.504;2024-01-15T08:48:05;4.35;;;2.63;;
84355;SDS011;74539;43.518;1.504;2024-01-15T08:50:32;4.20;;;2.30;;
84355;SDS011;74539;43.518;1.504;2024-01-15T08:52:58;4.93;;;2.65;;
84355;SDS011;74539;43.518;1.504;2024-01-15T08:55:24;5.28;;;2.92;;
84355;SDS011;74539;43.518;1.504;2024-01-15T08:57:49;5.22;;;2.70;;
84355;SDS011;74539;43.518;1.504;2024-01-15T09:00:15;4.10;;;2.40;;
84355;SDS011;74539;43.518;1.504;2024-01-15T09:02:41;4.63;;;2.38;;
84355;SDS011;74539;43.518;1.504;2024-01-15T09:05:07;4.15;;;2.30;;
84355;SDS011;74539;43.518;1.504;2024-01-15T09:07:33;5.57;;;2.80;;
84355;SDS011;74539;43.518;1.504;2024-01-15T09:09:58;4.00;;;2.70;;
84355;SDS011;74539;43.518;1.504;2024-01-15T09:12:25;5.50;;;2.88;;
84355;SDS011;74539;43.518;1.504;2024-01-15T09:14:51;4.53;;;2.72;;
84355;SDS011;74539;43.518;1.504;2024-01-15T09:17:17;4.13;;;2.42;;
84355;SDS011;74539;43.518;1.504;2024-01-15T09:19:42;4.60;;;2.67;;
84355;SDS011;74539;43.518;1.504;2024-01-15T09:22:09;5.03;;;2.90;;
84355;SDS011;74539;43.518;1.504;2024-01-15T09:24:34;3.97;;;2.45;;
84355;SDS011;74539;43.518;1.504;2024-01-15T09:27:00;3.83;;;2.45;;
84355;SDS011;74539;43.518;1.504;2024-01-15T09:29:26;5.82;;;2.80;;
84355;SDS011;74539;43.518;1.504;2024-01-15T09:31:51;4.00;;;2.45;;
84355;SDS011;74539;43.518;1.504;2024-01-15T09:34:17;5.05;;;2.60;;
84355;SDS011;74539;43.518;1.504;2024-01-15T09:36:43;4.85;;;2.70;;
84355;SDS011;74539;43.518;1.504;2024-01-15T09:39:08;3.97;;;2.47;;
84355;SDS011;74539;43.518;1.504;2024-01-15T09:41:36;4.13;;;2.58;;
84355;SDS011;74539;43.518;1.504;2024-01-15T09:44:02;4.57;;;2.60;;
84355;SDS011;74539;43.518;1.504;2024-01-15T09:46:28;4.90;;;2.58;;
84355;SDS011;74539;43.518;1.504;2024-01-15T09:48:54;3.33;;;2.30;;
84355;SDS011;74539;43.518;1.504;2024-01-15T09:51:20;4.82;;;2.53;;
84355;SDS011;74539;43.518;1.504;2024-01-15T09:53:46;4.95;;;2.95;;
84355;SDS011;74539;43.518;1.504;2024-01-15T09:56:12;4.18;;;2.80;;
84355;SDS011;74539;43.518;1.504;2024-01-15T09:58:38;4.53;;;2.55;;
84355;SDS011;74539;43.518;1.504;2024-01-15T10:01:04;4.60;;;2.95;;
84355;SDS011;74539;43.518;1.504;2024-01-15T10:03:29;4.13;;;2.58;;
84355;SDS011;74539;43.518;1.504;2024-01-15T10:05:55;5.68;;;3.00;;
84355;SDS011;74539;43.518;1.504;2024-01-15T10:08:24;5.07;;;2.90;;
84355;SDS011;74539;43.518;1.504;2024-01-15T10:10:50;5.35;;;2.83;;
84355;SDS011;74539;43.518;1.504;2024-01-15T10:13:16;5.07;;;2.78;;
84355;SDS011;74539;43.518;1.504;2024-01-15T10:15:45;5.47;;;3.05;;
84355;SDS011;74539;43.518;1.504;2024-01-15T10:18:14;4.47;;;2.80;;
84355;SDS011;74539;43.518;1.504;2024-01-15T10:20:39;4.75;;;2.95;;
84355;SDS011;74539;43.518;1.504;2024-01-15T10:23:05;4.18;;;2.80;;
84355;SDS011;74539;43.518;1.504;2024-01-15T10:25:30;4.82;;;2.60;;
84355;SDS011;74539;43.518;1.504;2024-01-15T10:28:05;4.30;;;2.67;;
84355;SDS011;74539;43.518;1.504;2024-01-15T10:30:31;4.03;;;2.42;;
84355;SDS011;74539;43.518;1.504;2024-01-15T10:32:58;3.88;;;2.30;;
84355;SDS011;74539;43.518;1.504;2024-01-15T10:35:26;4.45;;;2.70;;
84355;SDS011;74539;43.518;1.504;2024-01-15T10:38:01;4.63;;;2.60;;
84355;SDS011;74539;43.518;1.504;2024-01-15T10:40:28;4.22;;;2.50;;
84355;SDS011;74539;43.518;1.504;2024-01-15T10:42:54;5.22;;;2.80;;
84355;SDS011;74539;43.518;1.504;2024-01-15T10:45:20;4.30;;;2.53;;
84355;SDS011;74539;43.518;1.504;2024-01-15T10:47:45;4.43;;;2.58;;
84355;SDS011;74539;43.518;1.504;2024-01-15T10:50:11;4.60;;;2.60;;
84355;SDS011;74539;43.518;1.504;2024-01-15T10:52:38;3.55;;;2.50;;
84355;SDS011;74539;43.518;1.504;2024-01-15T10:55:06;4.07;;;2.60;;
84355;SDS011;74539;43.518;1.504;2024-01-15T10:57:36;4.50;;;2.78;;
84355;SDS011;74539;43.518;1.504;2024-01-15T11:00:03;3.97;;;2.78;;
84355;SDS011;74539;43.518;1.504;2024-01-15T11:02:31;4.60;;;2.55;;
84355;SDS011;74539;43.518;1.504;2024-01-15T11:05:01;4.30;;;2.90;;
84355;SDS011;74539;43.518;1.504;2024-01-15T11:07:26;4.03;;;2.60;;
84355;SDS011;74539;43.518;1.504;2024-01-15T11:09:52;4.10;;;2.33;;
84355;SDS011;74539;43.518;1.504;2024-01-15T11:12:18;5.05;;;2.70;;
84355;SDS011;74539;43.518;1.504;2024-01-15T11:14:50;3.72;;;2.47;;
84355;SDS011;74539;43.518;1.504;2024-01-15T11:17:17;4.13;;;2.67;;
84355;SDS011;74539;43.518;1.504;2024-01-15T11:24:56;4.28;;;2.67;;
84355;SDS011;74539;43.518;1.504;2024-01-15T11:30:07;5.10;;;2.85;;
84355;SDS011;74539;43.518;1.504;2024-01-15T11:32:36;4.63;;;2.60;;
84355;SDS011;74539;43.518;1.504;2024-01-15T11:35:02;4.43;;;2.78;;
84355;SDS011;74539;43.518;1.504;2024-01-15T11:37:28;7.60;;;2.75;;
84355;SDS011;74539;43.518;1.504;2024-01-15T11:40:14;6.65;;;2.80;;
84355;SDS011;74539;43.518;1.504;2024-01-15T11:42:44;5.85;;;2.90;;
84355;SDS011;74539;43.518;1.504;2024-01-15T11:45:10;5.85;;;2.80;;
84355;SDS011;74539;43.518;1.504;2024-01-15T11:48:21;4.95;;;2.72;;
84355;SDS011;74539;43.518;1.504;2024-01-15T11:50:24;4.55;;;2.72;;
84355;SDS011;74539;43.518;1.504;2024-01-15T11:52:55;5.07;;;2.92;;
84355;SDS011;74539;43.518;1.504;2024-01-15T11:58:03;4.78;;;2.75;;
84355;SDS011;74539;43.518;1.504;2024-01-15T12:00:34;5.07;;;2.85;;
84355;SDS011;74539;43.518;1.504;2024-01-15T12:03:04;5.88;;;2.90;;
84355;SDS011;74539;43.518;1.504;2024-01-15T12:05:30;5.85;;;2.92;;
84355;SDS011;74539;43.518;1.504;2024-01-15T12:07:55;4.97;;;2.70;;
84355;SDS011;74539;43.518;1.504;2024-01-15T12:10:21;5.13;;;2.70;;
84355;SDS011;74539;43.518;1.504;2024-01-15T12:12:50;4.68;;;2.83;;
84355;SDS011;74539;43.518;1.504;2024-01-15T12:15:17;5.03;;;3.10;;
84355;SDS011;74539;43.518;1.504;2024-01-15T12:17:43;4.25;;;2.50;;
84355;SDS011;74539;43.518;1.504;2024-01-15T12:20:08;4.65;;;3.00;;
84355;SDS011;74539;43.518;1.504;2024-01-15T12:22:35;5.20;;;2.80;;
84355;SDS011;74539;43.518;1.504;2024-01-15T12:25:00;4.43;;;3.05;;
84355;SDS011;74539;43.518;1.504;2024-01-15T12:27:26;5.22;;;2.90;;
84355;SDS011;74539;43.518;1.504;2024-01-15T12:29:54;5.05;;;3.00;;
84355;SDS011;74539;43.518;1.504;2024-01-15T12:32:19;4.80;;;3.00;;
84355;SDS011;74539;43.518;1.504;2024-01-15T12:34:49;3.75;;;2.60;;
84355;SDS011;74539;43.518;1.504;2024-01-15T12:37:14;4.93;;;3.03;;
84355;SDS011;74539;43.518;1.504;2024-01-15T12:39:42;4.72;;;2.58;;
84355;SDS011;74539;43.518;1.504;2024-01-15T12:42:09;5.45;;;3.08;;
84355;SDS011;74539;43.518;1.504;2024-01-15T12:44:35;3.92;;;2.60;;
84355;SDS011;74539;43.518;1.504;2024-01-15T12:47:03;5.25;;;2.80;;
84355;SDS011;74539;43.518;1.504;2024-01-15T12:49:32;4.50;;;2.80;;
84355;SDS011;74539;43.518;1.504;2024-01-15T12:51:57;4.57;;;2.67;;
84355;SDS011;74539;43.518;1.504;2024-01-15T12:54:24;5.55;;;2.80;;
84355;SDS011;74539;43.518;1.504;2024-01-15T12:56:50;4.97;;;2.63;;
84355;SDS011;74539;43.518;1.504;2024-01-15T12:59:16;4.05;;;2.78;;
84355;SDS011;74539;43.518;1.504;2024-01-15T13:01:43;4.88;;;2.90;;
84355;SDS011;74539;43.518;1.504;2024-01-15T13:04:08;5.25;;;2.70;;
84355;SDS011;74539;43.518;1.504;2024-01-15T13:06:34;4.57;;;2.95;;
84355;SDS011;74539;43.518;1.504;2024-01-15T13:09:00;5.15;;;3.13;;
84355;SDS011;74539;43.518;1.504;2024-01-15T13:11:26;4.28;;;2.78;;
84355;SDS011;74539;43.518;1.504;2024-01-15T13:13:52;5.00;;;3.00;;
84355;SDS011;74539;43.518;1.504;2024-01-15T13:16:18;5.47;;;2.70;;
84355;SDS011;74539;43.518;1.504;2024-01-15T13:18:45;3.85;;;2.60;;
84355;SDS011;74539;43.518;1.504;2024-01-15T13:21:11;3.95;;;2.63;;
84355;SDS011;74539;43.518;1.504;2024-01-15T13:23:37;3.67;;;2.47;;
84355;SDS011;74539;43.518;1.504;2024-01-15T13:26:03;4.88;;;2.70;;
84355;SDS011;74539;43.518;1.504;2024-01-15T13:28:30;3.70;;;2.60;;
84355;SDS011;74539;43.518;1.504;2024-01-15T13:30:55;4.82;;;2.90;;
84355;SDS011;74539;43.518;1.504;2024-01-15T13:33:21;4.65;;;2.65;;
84355;SDS011;74539;43.518;1.504;2024-01-15T13:35:47;3.63;;;2.30;;
84355;SDS011;74539;43.518;1.504;2024-01-15T13:38:15;5.93;;;2.60;;
84355;SDS011;74539;43.518;1.504;2024-01-15T13:40:40;4.80;;;2.60;;
84355;SDS011;74539;43.518;1.504;2024-01-15T13:43:06;4.43;;;2.63;;
84355;SDS011;74539;43.518;1.504;2024-01-15T13:45:34;3.60;;;2.42;;
84355;SDS011;74539;43.518;1.504;2024-01-15T13:48:01;4.30;;;2.40;;
84355;SDS011;74539;43.518;1.504;2024-01-15T13:50:30;4.80;;;2.75;;
84355;SDS011;74539;43.518;1.504;2024-01-15T13:53:00;3.70;;;2.42;;
84355;SDS011;74539;43.518;1.504;2024-01-15T13:55:25;3.08;;;2.25;;
84355;SDS011;74539;43.518;1.504;2024-01-15T13:57:50;3.72;;;2.70;;
84355;SDS011;74539;43.518;1.504;2024-01-15T14:00:16;3.45;;;2.47;;
84355;SDS011;74539;43.518;1.504;2024-01-15T14:02:44;3.60;;;2.42;;
84355;SDS011;74539;43.518;1.504;2024-01-15T14:05:11;3.85;;;2.55;;
84355;SDS011;74539;43.518;1.504;2024-01-15T14:07:40;4.00;;;2.15;;
84355;SDS011;74539;43.518;1.504;2024-01-15T14:10:06;3.00;;;2.28;;
84355;SDS011;74539;43.518;1.504;2024-01-15T14:12:33;2.75;;;2.17;;
84355;SDS011;74539;43.518;1.504;2024-01-15T14:14:59;3.65;;;2.20;;
84355;SDS011;74539;43.518;1.504;2024-01-15T14:17:25;3.00;;;2.00;;
84355;SDS011;74539;43.518;1.504;2024-01-15T14:19:50;3.20;;;2.10;;
84355;SDS011;74539;43.518;1.504;2024-01-15T14:22:16;3.22;;;2.20;;
84355;SDS011;74539;43.518;1.504;2024-01-15T14:24:41;2.67;;;1.88;;
84355;SDS011;74539;43.518;1.504;2024-01-15T14:27:06;2.97;;;2.00;;
84355;SDS011;74539;43.518;1.504;2024-01-15T14:29:32;3.40;;;2.03;;
84355;SDS011;74539;43.518;1.504;2024-01-15T14:31:58;2.53;;;1.90;;
84355;SDS011;74539;43.518;1.504;2024-01-15T14:34:24;2.85;;;1.90;;
84355;SDS011;74539;43.518;1.504;2024-01-15T14:36:51;2.38;;;1.90;;
84355;SDS011;74539;43.518;1.504;2024-01-15T14:39:18;2.67;;;1.58;;
84355;SDS011;74539;43.518;1.504;2024-01-15T14:41:44;2.97;;;2.13;;
84355;SDS011;74539;43.518;1.504;2024-01-15T14:44:11;3.38;;;1.60;;
84355;SDS011;74539;43.518;1.504;2024-01-15T14:46:37;1.98;;;1.42;;
84355;SDS011;74539;43.518;1.504;2024-01-15T14:49:03;3.20;;;1.67;;
84355;SDS011;74539;43.518;1.504;2024-01-15T14:51:28;2.08;;;1.42;;